sensor_id;sensor_type;location;lat;lon;timestamp;pressure;altitude;pressure_sealevel;temperature;humidity
37368;BME280;23240;43.210;27.910;2022-12-10T00:01:36;100636.34;;;13.29;100.00
37368;BME280;23240;43.210;27.910;2022-12-10T00:03:54;100633.09;;;13.26;100.00
37368;BME280;23240;43.210;27.910;2022-12-10T00:06:23;100626.72;;;13.27;100.00
37368;BME280;23240;43.210;27.910;2022-12-10T00:08:49;100621.63;;;13.24;100.00
37368;BME280;23240;43.210;27.910;2022-12-10T00:11:17;100631.09;;;13.18;100.00
37368;BME280;23240;43.210;27.910;2022-12-10T00:13:45;100628.41;;;13.18;100.00
37368;BME280;23240;43.210;27.910;2022-12-10T00:16:13;100630.97;;;13.10;100.00
37368;BME280;23240;43.210;27.910;2022-12-10T00:18:39;100618.94;;;13.14;100.00
37368;BME280;23240;43.210;27.910;2022-12-10T00:21:07;100615.13;;;13.17;100.00
37368;BME280;23240;43.210;27.910;2022-12-10T00:23:34;100613.97;;;13.09;100.00
37368;BME280;23240;43.210;27.910;2022-12-10T00:28:29;100615.41;;;13.13;100.00
37368;BME280;23240;43.210;27.910;2022-12-10T00:30:55;100607.47;;;13.12;100.00
37368;BME280;23240;43.210;27.910;2022-12-10T00:33:20;100604.06;;;13.10;100.00
37368;BME280;23240;43.210;27.910;2022-12-10T00:35:46;100605.91;;;13.09;100.00
37368;BME280;23240;43.210;27.910;2022-12-10T00:38:11;100603.38;;;13.08;100.00
37368;BME280;23240;43.210;27.910;2022-12-10T00:40:37;100610.19;;;13.02;100.00
37368;BME280;23240;43.210;27.910;2022-12-10T00:43:02;100600.56;;;13.00;100.00
37368;BME280;23240;43.210;27.910;2022-12-10T00:45:28;100613.31;;;12.98;100.00
37368;BME280;23240;43.210;27.910;2022-12-10T00:47:53;100601.13;;;12.94;100.00
37368;BME280;23240;43.210;27.910;2022-12-10T00:50:19;100609.22;;;12.94;100.00
37368;BME280;23240;43.210;27.910;2022-12-10T00:52:44;100602.97;;;12.93;100.00
37368;BME280;23240;43.210;27.910;2022-12-10T00:55:10;100587.97;;;12.91;100.00
37368;BME280;23240;43.210;27.910;2022-12-10T00:57:35;100595.91;;;12.92;100.00
37368;BME280;23240;43.210;27.910;2022-12-10T01:00:01;100591.06;;;12.96;100.00
37368;BME280;23240;43.210;27.910;2022-12-10T01:02:26;100593.34;;;12.91;100.00
37368;BME280;23240;43.210;27.910;2022-12-10T01:04:53;100589.28;;;12.86;100.00
37368;BME280;23240;43.210;27.910;2022-12-10T01:07:19;100586.28;;;12.90;100.00
37368;BME280;23240;43.210;27.910;2022-12-10T01:09:44;100592.38;;;12.92;100.00
37368;BME280;23240;43.210;27.910;2022-12-10T01:12:10;100579.78;;;12.92;100.00
37368;BME280;23240;43.210;27.910;2022-12-10T01:14:35;100582.34;;;12.84;100.00
37368;BME280;23240;43.210;27.910;2022-12-10T01:17:03;100573.44;;;12.83;100.00
37368;BME280;23240;43.210;27.910;2022-12-10T01:19:30;100577.22;;;12.81;100.00
37368;BME280;23240;43.210;27.910;2022-12-10T01:21:56;100574.97;;;12.76;100.00
37368;BME280;23240;43.210;27.910;2022-12-10T01:24:24;100572.16;;;12.78;100.00
37368;BME280;23240;43.210;27.910;2022-12-10T01:26:50;100574.97;;;12.76;100.00
37368;BME280;23240;43.210;27.910;2022-12-10T01:29:16;100574.97;;;12.76;100.00
37368;BME280;23240;43.210;27.910;2022-12-10T01:31:42;100564.09;;;12.78;100.00
37368;BME280;23240;43.210;27.910;2022-12-10T01:34:11;100558.72;;;12.78;100.00
37368;BME280;23240;43.210;27.910;2022-12-10T01:36:39;100564.25;;;12.67;100.00
37368;BME280;23240;43.210;27.910;2022-12-10T01:39:08;100551.94;;;12.64;100.00
37368;BME280;23240;43.210;27.910;2022-12-10T01:41:40;100548.41;;;12.64;100.00
37368;BME280;23240;43.210;27.910;2022-12-10T01:46:37;100553.06;;;12.61;100.00
37368;BME280;23240;43.210;27.910;2022-12-10T01:49:09;100549.41;;;12.63;100.00
37368;BME280;23240;43.210;27.910;2022-12-10T01:51:37;100548.84;;;12.59;100.00
37368;BME280;23240;43.210;27.910;2022-12-10T01:54:08;100544.47;;;12.48;100.00
37368;BME280;23240;43.210;27.910;2022-12-10T01:56:41;100533.31;;;12.53;100.00
37368;BME280;23240;43.210;27.910;2022-12-10T01:59:08;100536.00;;;12.53;100.00
37368;BME280;23240;43.210;27.910;2022-12-10T02:02:01;100535.00;;;12.54;100.00
37368;BME280;23240;43.210;27.910;2022-12-10T02:05:00;100536.25;;;12.50;100.00
37368;BME280;23240;43.210;27.910;2022-12-10T02:13:07;100526.94;;;12.44;100.00
37368;BME280;23240;43.210;27.910;2022-12-10T02:15:52;100520.72;;;12.44;100.00
37368;BME280;23240;43.210;27.910;2022-12-10T02:18:19;100515.34;;;12.44;100.00
37368;BME280;23240;43.210;27.910;2022-12-10T02:20:59;100510.97;;;12.43;100.00
37368;BME280;23240;43.210;27.910;2022-12-10T02:23:35;100516.34;;;12.43;100.00
37368;BME280;23240;43.210;27.910;2022-12-10T02:26:09;100514.63;;;12.42;100.00
37368;BME280;23240;43.210;27.910;2022-12-10T02:28:54;100516.78;;;12.48;100.00
37368;BME280;23240;43.210;27.910;2022-12-10T02:31:25;100514.50;;;12.53;100.00
37368;BME280;23240;43.210;27.910;2022-12-10T02:33:57;100509.69;;;12.47;100.00
37368;BME280;23240;43.210;27.910;2022-12-10T02:36:28;100508.97;;;12.45;100.00
37368;BME280;23240;43.210;27.910;2022-12-10T02:38:55;100513.94;;;12.49;100.00
37368;BME280;23240;43.210;27.910;2022-12-10T02:41:25;100511.66;;;12.54;100.00
37368;BME280;23240;43.210;27.910;2022-12-10T02:43:54;100508.41;;;12.51;100.00
37368;BME280;23240;43.210;27.910;2022-12-10T02:46:22;100505.44;;;12.54;100.00
37368;BME280;23240;43.210;27.910;2022-12-10T02:48:50;100513.50;;;12.54;100.00
37368;BME280;23240;43.210;27.910;2022-12-10T02:51:16;100508.53;;;12.59;100.00
37368;BME280;23240;43.210;27.910;2022-12-10T02:53:45;100502.91;;;12.62;100.00
37368;BME280;23240;43.210;27.910;2022-12-10T03:03:58;100483.63;;;12.67;100.00
37368;BME280;23240;43.210;27.910;2022-12-10T03:06:41;100488.88;;;12.68;100.00
37368;BME280;23240;43.210;27.910;2022-12-10T03:09:15;100466.38;;;12.69;100.00
37368;BME280;23240;43.210;27.910;2022-12-10T03:11:43;100471.47;;;12.72;100.00
37368;BME280;23240;43.210;27.910;2022-12-10T03:14:17;100473.16;;;12.73;100.00
37368;BME280;23240;43.210;27.910;2022-12-10T03:16:50;100474.84;;;12.74;100.00
37368;BME280;23240;43.210;27.910;2022-12-10T03:19:20;100478.78;;;12.80;100.00
37368;BME280;23240;43.210;27.910;2022-12-10T03:21:49;100481.34;;;12.81;100.00
37368;BME280;23240;43.210;27.910;2022-12-10T03:24:16;100482.03;;;12.83;100.00
37368;BME280;23240;43.210;27.910;2022-12-10T03:26:44;100481.59;;;12.88;100.00
37368;BME280;23240;43.210;27.910;2022-12-10T03:29:22;100475.47;;;12.96;100.00
37368;BME280;23240;43.210;27.910;2022-12-10T03:31:51;100472.50;;;12.99;100.00
37368;BME280;23240;43.210;27.910;2022-12-10T03:34:18;100472.22;;;13.02;100.00
37368;BME280;23240;43.210;27.910;2022-12-10T03:36:44;100480.97;;;13.04;100.00
37368;BME280;23240;43.210;27.910;2022-12-10T03:39:10;100473.91;;;13.03;100.00
37368;BME280;23240;43.210;27.910;2022-12-10T03:41:36;100469.81;;;12.99;100.00
37368;BME280;23240;43.210;27.910;2022-12-10T03:44:02;100462.63;;;12.90;100.00
37368;BME280;23240;43.210;27.910;2022-12-10T03:46:29;100459.53;;;12.84;100.00
37368;BME280;23240;43.210;27.910;2022-12-10T03:48:57;100448.38;;;12.79;100.00
37368;BME280;23240;43.210;27.910;2022-12-10T03:51:23;100453.19;;;12.76;100.00
37368;BME280;23240;43.210;27.910;2022-12-10T03:53:49;100451.66;;;12.73;100.00
37368;BME280;23240;43.210;27.910;2022-12-10T03:56:15;100456.47;;;12.70;100.00
37368;BME280;23240;43.210;27.910;2022-12-10T03:58:41;100452.09;;;12.69;100.00
37368;BME280;23240;43.210;27.910;2022-12-10T04:01:07;100449.56;;;12.67;100.00
37368;BME280;23240;43.210;27.910;2022-12-10T04:03:36;100442.63;;;12.65;100.00
37368;BME280;23240;43.210;27.910;2022-12-10T04:06:07;100437.69;;;12.60;100.00
37368;BME280;23240;43.210;27.910;2022-12-10T04:08:34;100441.53;;;12.57;100.00
37368;BME280;23240;43.210;27.910;2022-12-10T04:11:08;100436.59;;;12.53;100.00
37368;BME280;23240;43.210;27.910;2022-12-10T04:13:36;100436.88;;;12.50;100.00
37368;BME280;23240;43.210;27.910;2022-12-10T04:16:20;100443.25;;;12.49;100.00
37368;BME280;23240;43.210;27.910;2022-12-10T04:18:53;100443.53;;;12.46;100.00
37368;BME280;23240;43.210;27.910;2022-12-10T04:21:18;100452.28;;;12.48;100.00
37368;BME280;23240;43.210;27.910;2022-12-10T04:24:02;100445.50;;;12.53;100.00
37368;BME280;23240;43.210;27.910;2022-12-10T04:26:46;100453.53;;;12.63;100.00
37368;BME280;23240;43.210;27.910;2022-12-10T04:29:23;100448.59;;;12.58;100.00
37368;BME280;23240;43.210;27.910;2022-12-10T04:31:48;100445.34;;;12.55;100.00
37368;BME280;23240;43.210;27.910;2022-12-10T04:34:14;100441.25;;;12.51;100.00
37368;BME280;23240;43.210;27.910;2022-12-10T04:36:39;100432.34;;;12.50;100.00
37368;BME280;23240;43.210;27.910;2022-12-10T04:39:05;100442.09;;;12.51;100.00
37368;BME280;23240;43.210;27.910;2022-12-10T04:41:31;100437.88;;;12.49;100.00
37368;BME280;23240;43.210;27.910;2022-12-10T04:43:56;100437.44;;;12.44;100.00
37368;BME280;23240;43.210;27.910;2022-12-10T04:46:22;100437.56;;;12.42;100.00
37368;BME280;23240;43.210;27.910;2022-12-10T04:48:47;100444.94;;;12.40;100.00
37368;BME280;23240;43.210;27.910;2022-12-10T04:51:13;100436.03;;;12.40;100.00
37368;BME280;23240;43.210;27.910;2022-12-10T04:53:38;100433.78;;;12.35;100.00
37368;BME280;23240;43.210;27.910;2022-12-10T04:56:04;100443.53;;;12.36;100.00
37368;BME280;23240;43.210;27.910;2022-12-10T04:58:32;100443.97;;;12.31;100.00
37368;BME280;23240;43.210;27.910;2022-12-10T05:01:06;100442.00;;;12.33;100.00
37368;BME280;23240;43.210;27.910;2022-12-10T05:03:32;100448.91;;;12.26;100.00
37368;BME280;23240;43.210;27.910;2022-12-10T05:06:09;100446.38;;;12.25;100.00
37368;BME280;23240;43.210;27.910;2022-12-10T05:08:37;100454.28;;;12.26;100.00
37368;BME280;23240;43.210;27.910;2022-12-10T05:11:08;100460.66;;;12.25;100.00
37368;BME280;23240;43.210;27.910;2022-12-10T05:13:34;100459.09;;;12.23;100.00
37368;BME280;23240;43.210;27.910;2022-12-10T05:16:04;100461.94;;;12.21;100.00
37368;BME280;23240;43.210;27.910;2022-12-10T05:18:30;100466.03;;;12.25;100.00
37368;BME280;23240;43.210;27.910;2022-12-10T05:21:00;100466.72;;;12.18;100.00
37368;BME280;23240;43.210;27.910;2022-12-10T05:23:26;100467.56;;;12.18;100.00
37368;BME280;23240;43.210;27.910;2022-12-10T05:26:14;100480.72;;;12.21;100.00
37368;BME280;23240;43.210;27.910;2022-12-10T05:28:43;100477.03;;;12.22;100.00
37368;BME280;23240;43.210;27.910;2022-12-10T05:31:15;100474.09;;;12.25;100.00
37368;BME280;23240;43.210;27.910;2022-12-10T05:33:41;100472.66;;;12.21;100.00
37368;BME280;23240;43.210;27.910;2022-12-10T05:36:09;100471.25;;;12.17;100.00
37368;BME280;23240;43.210;27.910;2022-12-10T05:38:34;100468.56;;;12.17;100.00
37368;BME280;23240;43.210;27.910;2022-12-10T05:41:05;100468.44;;;12.19;100.00
37368;BME280;23240;43.210;27.910;2022-12-10T05:43:30;100468.16;;;12.22;100.00
37368;BME280;23240;43.210;27.910;2022-12-10T05:46:01;100471.56;;;12.24;100.00
37368;BME280;23240;43.210;27.910;2022-12-10T05:48:26;100481.28;;;12.25;100.00
37368;BME280;23240;43.210;27.910;2022-12-10T05:50:52;100479.47;;;12.25;100.00
37368;BME280;23240;43.210;27.910;2022-12-10T05:53:17;100478.63;;;12.25;100.00
37368;BME280;23240;43.210;27.910;2022-12-10T05:55:43;100488.22;;;12.27;100.00
37368;BME280;23240;43.210;27.910;2022-12-10T05:58:09;100486.81;;;12.33;100.00
37368;BME280;23240;43.210;27.910;2022-12-10T06:00:35;100491.59;;;12.39;100.00
37368;BME280;23240;43.210;27.910;2022-12-10T06:03:00;100489.50;;;12.43;100.00
37368;BME280;23240;43.210;27.910;2022-12-10T06:05:26;100478.75;;;12.43;100.00
37368;BME280;23240;43.210;27.910;2022-12-10T06:07:51;100471.38;;;12.45;100.00
37368;BME280;23240;43.210;27.910;2022-12-10T06:10:17;100465.84;;;12.46;100.00
37368;BME280;23240;43.210;27.910;2022-12-10T06:12:42;100467.69;;;12.46;100.00
37368;BME280;23240;43.210;27.910;2022-12-10T06:15:08;100472.06;;;12.47;100.00
37368;BME280;23240;43.210;27.910;2022-12-10T06:17:34;100470.09;;;12.49;100.00
37368;BME280;23240;43.210;27.910;2022-12-10T06:20:01;100463.56;;;12.51;100.00
37368;BME280;23240;43.210;27.910;2022-12-10T06:22:27;100468.25;;;12.49;100.00
37368;BME280;23240;43.210;27.910;2022-12-10T06:24:52;100469.94;;;12.50;100.00
37368;BME280;23240;43.210;27.910;2022-12-10T06:27:18;100467.97;;;12.52;100.00
37368;BME280;23240;43.210;27.910;2022-12-10T06:29:44;100472.06;;;12.56;100.00
37368;BME280;23240;43.210;27.910;2022-12-10T06:32:09;100463.88;;;12.58;100.00
37368;BME280;23240;43.210;27.910;2022-12-10T06:34:35;100458.06;;;12.63;100.00
37368;BME280;23240;43.210;27.910;2022-12-10T06:37:00;100463.00;;;12.67;100.00
37368;BME280;23240;43.210;27.910;2022-12-10T06:39:26;100465.38;;;12.70;100.00
37368;BME280;23240;43.210;27.910;2022-12-10T06:41:51;100462.09;;;12.76;100.00
37368;BME280;23240;43.210;27.910;2022-12-10T06:44:17;100463.91;;;12.85;100.00
37368;BME280;23240;43.210;27.910;2022-12-10T06:46:42;100465.59;;;12.96;100.00
37368;BME280;23240;43.210;27.910;2022-12-10T06:49:08;100474.16;;;13.09;100.00
37368;BME280;23240;43.210;27.910;2022-12-10T06:51:34;100476.25;;;13.25;100.00
37368;BME280;23240;43.210;27.910;2022-12-10T06:53:59;100470.66;;;13.36;100.00
37368;BME280;23240;43.210;27.910;2022-12-10T06:56:25;100471.16;;;13.50;100.00
37368;BME280;23240;43.210;27.910;2022-12-10T06:58:51;100470.56;;;13.56;100.00
37368;BME280;23240;43.210;27.910;2022-12-10T07:01:22;100466.81;;;13.67;100.00
37368;BME280;23240;43.210;27.910;2022-12-10T07:03:52;100461.81;;;13.72;100.00
37368;BME280;23240;43.210;27.910;2022-12-10T07:06:19;100460.22;;;13.79;100.00
37368;BME280;23240;43.210;27.910;2022-12-10T07:08:45;100455.72;;;13.87;100.00
37368;BME280;23240;43.210;27.910;2022-12-10T07:11:13;100443.28;;;14.04;100.00
37368;BME280;23240;43.210;27.910;2022-12-10T07:13:39;100442.81;;;14.09;100.00
37368;BME280;23240;43.210;27.910;2022-12-10T07:16:28;100446.44;;;14.18;100.00
37368;BME280;23240;43.210;27.910;2022-12-10T07:18:56;100435.19;;;14.22;100.00
37368;BME280;23240;43.210;27.910;2022-12-10T07:21:28;100431.69;;;14.30;100.00
37368;BME280;23240;43.210;27.910;2022-12-10T07:23:56;100431.22;;;14.34;100.00
37368;BME280;23240;43.210;27.910;2022-12-10T07:26:29;100432.69;;;14.47;100.00
37368;BME280;23240;43.210;27.910;2022-12-10T07:28:54;100437.16;;;14.56;100.00
37368;BME280;23240;43.210;27.910;2022-12-10T07:31:21;100438.72;;;14.67;100.00
37368;BME280;23240;43.210;27.910;2022-12-10T07:33:47;100437.78;;;14.76;100.00
37368;BME280;23240;43.210;27.910;2022-12-10T07:36:13;100427.72;;;14.86;100.00
37368;BME280;23240;43.210;27.910;2022-12-10T07:38:39;100428.63;;;14.95;100.00
37368;BME280;23240;43.210;27.910;2022-12-10T07:41:06;100435.94;;;15.10;100.00
37368;BME280;23240;43.210;27.910;2022-12-10T07:43:37;100426.03;;;15.27;100.00
37368;BME280;23240;43.210;27.910;2022-12-10T07:46:12;100430.00;;;15.49;100.00
37368;BME280;23240;43.210;27.910;2022-12-10T07:48:40;100415.34;;;15.60;100.00
37368;BME280;23240;43.210;27.910;2022-12-10T07:51:07;100421.81;;;15.67;100.00
37368;BME280;23240;43.210;27.910;2022-12-10T07:53:33;100420.81;;;15.76;100.00
37368;BME280;23240;43.210;27.910;2022-12-10T07:55:58;100410.19;;;15.83;100.00
37368;BME280;23240;43.210;27.910;2022-12-10T07:58:24;100405.63;;;15.83;100.00
37368;BME280;23240;43.210;27.910;2022-12-10T08:00:50;100403.56;;;15.85;100.00
37368;BME280;23240;43.210;27.910;2022-12-10T08:03:15;100402.41;;;15.88;100.00
37368;BME280;23240;43.210;27.910;2022-12-10T08:05:41;100402.09;;;15.91;100.00
37368;BME280;23240;43.210;27.910;2022-12-10T08:08:07;100397.00;;;15.88;100.00
37368;BME280;23240;43.210;27.910;2022-12-10T08:10:37;100402.41;;;15.88;100.00
37368;BME280;23240;43.210;27.910;2022-12-10T08:13:08;100396.34;;;15.94;100.00
37368;BME280;23240;43.210;27.910;2022-12-10T08:15:33;100391.44;;;15.98;100.00
37368;BME280;23240;43.210;27.910;2022-12-10T08:17:59;100389.91;;;16.03;100.00
37368;BME280;23240;43.210;27.910;2022-12-10T08:20:24;100397.53;;;16.08;100.00
37368;BME280;23240;43.210;27.910;2022-12-10T08:22:51;100385.03;;;16.07;100.00
37368;BME280;23240;43.210;27.910;2022-12-10T08:25:16;100384.50;;;16.03;100.00
37368;BME280;23240;43.210;27.910;2022-12-10T08:27:42;100383.34;;;16.06;100.00
37368;BME280;23240;43.210;27.910;2022-12-10T08:30:08;100376.22;;;16.05;100.00
37368;BME280;23240;43.210;27.910;2022-12-10T08:32:34;100388.06;;;16.04;100.00
37368;BME280;23240;43.210;27.910;2022-12-10T08:34:59;100374.56;;;16.04;100.00
37368;BME280;23240;43.210;27.910;2022-12-10T08:37:25;100374.22;;;16.07;100.00
37368;BME280;23240;43.210;27.910;2022-12-10T08:39:50;100379.25;;;16.10;100.00
37368;BME280;23240;43.210;27.910;2022-12-10T08:42:16;100372.00;;;16.18;100.00
37368;BME280;23240;43.210;27.910;2022-12-10T08:44:41;100370.81;;;16.29;100.00
37368;BME280;23240;43.210;27.910;2022-12-10T08:47:07;100362.34;;;16.40;100.00
37368;BME280;23240;43.210;27.910;2022-12-10T08:49:32;100353.16;;;16.58;100.00
37368;BME280;23240;43.210;27.910;2022-12-10T08:51:58;100346.56;;;16.68;100.00
37368;BME280;23240;43.210;27.910;2022-12-10T08:54:23;100348.72;;;16.81;100.00
37368;BME280;23240;43.210;27.910;2022-12-10T08:56:49;100342.25;;;16.99;100.00
37368;BME280;23240;43.210;27.910;2022-12-10T08:59:15;100331.72;;;17.04;100.00
37368;BME280;23240;43.210;27.910;2022-12-10T09:01:40;100329.97;;;17.11;100.00
37368;BME280;23240;43.210;27.910;2022-12-10T09:04:06;100330.59;;;17.21;100.00
37368;BME280;23240;43.210;27.910;2022-12-10T09:06:32;100326.53;;;17.25;100.00
37368;BME280;23240;43.210;27.910;2022-12-10T09:08:57;100329.00;;;17.35;100.00
37368;BME280;23240;43.210;27.910;2022-12-10T09:11:26;100319.66;;;17.45;100.00
37368;BME280;23240;43.210;27.910;2022-12-10T09:13:52;100318.22;;;17.50;100.00
37368;BME280;23240;43.210;27.910;2022-12-10T09:16:18;100321.09;;;17.56;100.00
37368;BME280;23240;43.210;27.910;2022-12-10T09:18:44;100308.50;;;17.86;100.00
37368;BME280;23240;43.210;27.910;2022-12-10T09:21:13;100313.03;;;18.09;100.00
37368;BME280;23240;43.210;27.910;2022-12-10T09:23:40;100298.53;;;18.16;100.00
37368;BME280;23240;43.210;27.910;2022-12-10T09:26:08;100294.09;;;18.23;100.00
37368;BME280;23240;43.210;27.910;2022-12-10T09:28:35;100296.81;;;18.38;100.00
37368;BME280;23240;43.210;27.910;2022-12-10T09:31:02;100287.91;;;18.44;100.00
37368;BME280;23240;43.210;27.910;2022-12-10T09:33:29;100279.00;;;18.50;100.00
37368;BME280;23240;43.210;27.910;2022-12-10T09:35:54;100288.38;;;18.63;100.00
37368;BME280;23240;43.210;27.910;2022-12-10T09:38:20;100275.44;;;18.65;100.00
37368;BME280;23240;43.210;27.910;2022-12-10T09:41:02;100272.75;;;18.50;100.00
37368;BME280;23240;43.210;27.910;2022-12-10T09:51:33;100266.22;;;18.30;100.00
37368;BME280;23240;43.210;27.910;2022-12-10T09:54:00;100251.16;;;18.12;100.00
37368;BME280;23240;43.210;27.910;2022-12-10T09:56:36;100258.84;;;18.09;100.00
37368;BME280;23240;43.210;27.910;2022-12-10T09:59:32;100250.38;;;17.89;100.00
37368;BME280;23240;43.210;27.910;2022-12-10T10:02:10;100251.53;;;17.94;100.00
37368;BME280;23240;43.210;27.910;2022-12-10T10:04:41;100245.00;;;18.04;100.00
37368;BME280;23240;43.210;27.910;2022-12-10T10:07:21;100239.09;;;18.00;100.00
37368;BME280;23240;43.210;27.910;2022-12-10T10:09:51;100233.03;;;18.13;100.00
37368;BME280;23240;43.210;27.910;2022-12-10T10:12:20;100230.91;;;18.23;100.00
37368;BME280;23240;43.210;27.910;2022-12-10T10:14:45;100228.47;;;18.28;100.00
37368;BME280;23240;43.210;27.910;2022-12-10T10:19:43;100216.66;;;18.36;100.00
37368;BME280;23240;43.210;27.910;2022-12-10T10:22:10;100211.34;;;18.42;100.00
37368;BME280;23240;43.210;27.910;2022-12-10T10:24:40;100210.94;;;18.45;100.00
37368;BME280;23240;43.210;27.910;2022-12-10T10:27:18;100193.38;;;18.41;100.00
37368;BME280;23240;43.210;27.910;2022-12-10T10:29:47;100192.09;;;18.37;100.00
37368;BME280;23240;43.210;27.910;2022-12-10T10:32:19;100186.53;;;18.45;100.00
37368;BME280;23240;43.210;27.910;2022-12-10T10:34:47;100184.34;;;18.56;100.00
37368;BME280;23240;43.210;27.910;2022-12-10T10:37:29;100183.91;;;18.52;100.00
37368;BME280;23240;43.210;27.910;2022-12-10T10:39:56;100185.41;;;18.55;100.00
37368;BME280;23240;43.210;27.910;2022-12-10T10:42:33;100176.72;;;18.44;100.00
37368;BME280;23240;43.210;27.910;2022-12-10T10:44:59;100176.50;;;18.61;100.00
37368;BME280;23240;43.210;27.910;2022-12-10T10:47:31;100173.38;;;18.79;100.00
37368;BME280;23240;43.210;27.910;2022-12-10T10:49:57;100160.19;;;18.75;100.00
37368;BME280;23240;43.210;27.910;2022-12-10T10:52:28;100157.47;;;18.75;100.00
37368;BME280;23240;43.210;27.910;2022-12-10T10:54:54;100162.06;;;18.75;100.00
37368;BME280;23240;43.210;27.910;2022-12-10T10:57:34;100159.63;;;18.80;100.00
37368;BME280;23240;43.210;27.910;2022-12-10T11:00:20;100163.16;;;18.95;100.00
37368;BME280;23240;43.210;27.910;2022-12-10T11:02:49;100156.78;;;18.88;100.00
37368;BME280;23240;43.210;27.910;2022-12-10T11:05:36;100149.91;;;18.71;100.00
37368;BME280;23240;43.210;27.910;2022-12-10T11:08:04;100148.44;;;18.68;100.00
37368;BME280;23240;43.210;27.910;2022-12-10T11:10:31;100137.50;;;18.62;100.00
37368;BME280;23240;43.210;27.910;2022-12-10T11:13:04;100132.25;;;18.60;100.00
37368;BME280;23240;43.210;27.910;2022-12-10T11:15:34;100136.72;;;18.68;100.00
37368;BME280;23240;43.210;27.910;2022-12-10T11:18:02;100130.09;;;18.70;100.00
37368;BME280;23240;43.210;27.910;2022-12-10T11:20:31;100136.81;;;18.74;100.00
37368;BME280;23240;43.210;27.910;2022-12-10T11:22:59;100140.09;;;18.70;100.00
37368;BME280;23240;43.210;27.910;2022-12-10T11:30:47;100132.94;;;18.84;100.00
37368;BME280;23240;43.210;27.910;2022-12-10T11:36:00;100122.41;;;18.74;100.00
37368;BME280;23240;43.210;27.910;2022-12-10T11:38:59;100114.84;;;18.69;100.00
37368;BME280;23240;43.210;27.910;2022-12-10T11:42:16;100112.31;;;18.68;100.00
37368;BME280;23240;43.210;27.910;2022-12-10T11:50:07;100109.63;;;18.89;100.00
37368;BME280;23240;43.210;27.910;2022-12-10T11:52:55;100104.28;;;18.96;100.00
37368;BME280;23240;43.210;27.910;2022-12-10T11:55:38;100112.47;;;19.03;100.00
37368;BME280;23240;43.210;27.910;2022-12-10T11:58:37;100111.75;;;19.15;100.00
37368;BME280;23240;43.210;27.910;2022-12-10T12:06:24;100099.25;;;19.21;100.00
37368;BME280;23240;43.210;27.910;2022-12-10T12:14:07;100108.72;;;19.04;100.00
37368;BME280;23240;43.210;27.910;2022-12-10T12:17:00;100107.16;;;18.94;100.00
37368;BME280;23240;43.210;27.910;2022-12-10T12:19:44;100114.78;;;18.84;100.00
37368;BME280;23240;43.210;27.910;2022-12-10T12:22:26;100104.72;;;18.78;100.00
37368;BME280;23240;43.210;27.910;2022-12-10T12:24:57;100118.53;;;18.62;100.00
37368;BME280;23240;43.210;27.910;2022-12-10T12:27:40;100119.25;;;18.56;100.00
37368;BME280;23240;43.210;27.910;2022-12-10T12:30:14;100122.75;;;18.49;100.00
37368;BME280;23240;43.210;27.910;2022-12-10T12:41:06;100099.50;;;18.40;100.00
37368;BME280;23240;43.210;27.910;2022-12-10T12:46:03;100092.91;;;18.49;100.00
37368;BME280;23240;43.210;27.910;2022-12-10T12:53:35;100073.22;;;18.41;100.00
37368;BME280;23240;43.210;27.910;2022-12-10T13:01:51;100063.25;;;18.27;100.00
37368;BME280;23240;43.210;27.910;2022-12-10T13:04:18;100062.53;;;18.18;100.00
37368;BME280;23240;43.210;27.910;2022-12-10T13:10:09;100048.72;;;18.13;100.00
37368;BME280;23240;43.210;27.910;2022-12-10T13:12:45;100061.03;;;17.94;100.00
37368;BME280;23240;43.210;27.910;2022-12-10T13:15:33;100057.38;;;17.72;100.00
37368;BME280;23240;43.210;27.910;2022-12-10T13:41:37;100096.59;;;16.09;100.00
37368;BME280;23240;43.210;27.910;2022-12-10T13:44:48;100094.66;;;15.94;100.00
37368;BME280;23240;43.210;27.910;2022-12-10T13:47:25;100097.94;;;15.74;100.00
37368;BME280;23240;43.210;27.910;2022-12-10T13:49:55;100091.38;;;15.60;100.00
37368;BME280;23240;43.210;27.910;2022-12-10T13:55:12;100092.09;;;15.37;100.00
37368;BME280;23240;43.210;27.910;2022-12-10T14:00:21;100090.97;;;15.24;100.00
37368;BME280;23240;43.210;27.910;2022-12-10T14:03:09;100094.19;;;15.19;100.00
37368;BME280;23240;43.210;27.910;2022-12-10T14:06:06;100087.94;;;15.19;100.00
37368;BME280;23240;43.210;27.910;2022-12-10T14:08:38;100093.34;;;15.10;100.00
37368;BME280;23240;43.210;27.910;2022-12-10T14:11:13;100093.00;;;15.05;100.00
37368;BME280;23240;43.210;27.910;2022-12-10T14:13:44;100104.13;;;15.02;100.00
37368;BME280;23240;43.210;27.910;2022-12-10T14:16:14;100104.81;;;14.96;100.00
37368;BME280;23240;43.210;27.910;2022-12-10T14:18:46;100102.31;;;14.95;100.00
37368;BME280;23240;43.210;27.910;2022-12-10T14:21:14;100100.44;;;14.87;100.00
37368;BME280;23240;43.210;27.910;2022-12-10T14:23:48;100096.56;;;14.89;100.00
37368;BME280;23240;43.210;27.910;2022-12-10T14:26:21;100083.41;;;14.95;100.00
37368;BME280;23240;43.210;27.910;2022-12-10T14:28:55;100082.91;;;14.83;100.00
37368;BME280;23240;43.210;27.910;2022-12-10T14:31:37;100085.78;;;14.81;100.00